Time;durP1;ratioP1;P1;durP2;ratioP2;P2;SDS_P1;SDS_P2;PMS_P1;PMS_P2;Temp;Humidity;BMP_temperature;BMP_pressure;BME280_temperature;BME280_humidity;BME280_pressure;Samples;Min_cycle;Max_cycle;Signal;HPM_P1;HPM_P2
2022/06/20 00:02:50;;;;;;;7.80;5.65;;;;;;;17.58;63.74;98256.51;2207716;79;20980;-80
2022/06/20 00:05:51;;;;;;;8.58;5.25;;;;;;;17.55;64.15;98265.83;2208429;79;20952;-80
2022/06/20 00:08:51;;;;;;;7.22;5.22;;;;;;;17.49;64.15;98289.27;2207992;79;21031;-80
2022/06/20 00:11:51;;;;;;;7.15;5.70;;;;;;;17.45;64.63;98255.95;2209337;79;20877;-80
2022/06/20 00:14:52;;;;;;;8.00;5.60;;;;;;;17.42;64.60;98263.95;2209385;79;20921;-80
2022/06/20 00:17:52;;;;;;;8.03;5.50;;;;;;;17.43;64.81;98285.47;2208906;79;20999;-80
2022/06/20 00:20:52;;;;;;;9.35;5.42;;;;;;;17.37;64.89;98253.95;2208986;79;20916;-80
2022/06/20 00:23:53;;;;;;;6.85;5.55;;;;;;;17.33;65.24;98253.59;2209289;79;21241;-80
2022/06/20 00:26:53;;;;;;;8.18;5.62;;;;;;;17.26;65.41;98259.47;2208411;79;21020;-80
2022/06/20 00:29:54;;;;;;;7.65;5.90;;;;;;;17.24;65.76;98256.45;2209310;79;20932;-80
2022/06/20 00:32:54;;;;;;;10.60;6.20;;;;;;;17.19;65.96;98240.73;2209584;79;20921;-80
2022/06/20 00:35:54;;;;;;;6.50;5.75;;;;;;;17.14;66.46;98238.66;2209305;80;21084;-80
2022/06/20 00:38:55;;;;;;;9.80;5.50;;;;;;;17.08;66.56;98251.99;2209403;79;20937;-79
2022/06/20 00:41:55;;;;;;;7.80;5.80;;;;;;;17.01;66.95;98246.45;2207923;79;20964;-79
2022/06/20 00:44:56;;;;;;;9.13;5.65;;;;;;;16.92;67.27;98229.08;2207724;79;21410;-79
2022/06/20 00:47:56;;;;;;;8.18;5.80;;;;;;;16.88;67.58;98233.55;2208073;79;21268;-80
2022/06/20 00:50:57;;;;;;;14.30;7.10;;;;;;;16.92;67.63;98246.21;2208382;79;20964;-80
2022/06/20 00:53:57;;;;;;;8.00;6.17;;;;;;;16.96;67.95;98239.97;2208058;79;21344;-80
2022/06/20 00:56:57;;;;;;;9.30;6.17;;;;;;;16.93;68.21;98234.77;2208734;79;21015;-80
2022/06/20 00:59:58;;;;;;;8.00;6.28;;;;;;;16.93;68.42;98226.85;2209332;81;20897;-79
2022/06/20 01:02:58;;;;;;;10.70;6.10;;;;;;;16.90;68.40;98212.43;2208669;79;21340;-80
2022/06/20 01:05:59;;;;;;;9.13;5.65;;;;;;;16.88;68.41;98211.59;2209685;79;20996;-79
2022/06/20 01:08:59;;;;;;;9.63;6.00;;;;;;;16.90;68.59;98207.16;2209741;79;20944;-80
2022/06/20 01:12:03;;;;;;;8.65;5.47;;;;;;;16.86;68.49;98217.36;2210263;79;20958;-80
2022/06/20 01:15:02;;;;;;;10.40;5.80;;;;;;;16.83;68.50;98216.98;2210352;79;20925;-79
2022/06/20 01:18:03;;;;;;;10.88;5.60;;;;;;;16.79;68.94;98211.36;2209597;79;20909;-79
2022/06/20 01:21:03;;;;;;;7.15;5.80;;;;;;;16.79;69.03;98209.17;2209857;79;20949;-80
2022/06/20 01:24:05;;;;;;;11.88;5.87;;;;;;;16.78;69.26;98205.67;2210074;79;20913;-80
2022/06/20 01:27:04;;;;;;;9.43;5.70;;;;;;;16.76;69.30;98210.56;2209640;79;21408;-80
2022/06/20 01:30:04;;;;;;;6.17;5.12;;;;;;;16.77;69.08;98200.44;2209614;79;20931;-80
2022/06/20 01:33:05;;;;;;;11.00;5.95;;;;;;;16.82;69.34;98185.38;2209832;79;20972;-80
2022/06/20 01:39:24;;;;;;;9.58;5.62;;;;;;;16.80;69.30;98186.73;2209909;81;21353;-79
2022/06/20 01:42:25;;;;;;;10.05;5.70;;;;;;;16.72;69.54;98190.45;2209898;79;20940;-79
2022/06/20 01:48:44;;;;;;;6.80;5.50;;;;;;;16.71;69.80;98185.63;2209614;81;20953;-79
2022/06/20 01:51:45;;;;;;;24.20;6.70;;;;;;;16.72;69.30;98178.14;2209278;79;21317;-79
2022/06/20 01:54:45;;;;;;;9.18;5.78;;;;;;;16.74;69.48;98180.30;2209355;79;20952;-79
2022/06/20 01:57:45;;;;;;;28.83;6.90;;;;;;;16.79;69.49;98170.95;2209474;79;20933;-79
2022/06/20 02:00:46;;;;;;;8.80;5.80;;;;;;;16.79;69.36;98185.45;2209526;79;20944;-79
2022/06/20 02:03:46;;;;;;;12.50;5.72;;;;;;;16.83;69.49;98196.34;2209554;79;21344;-79
2022/06/20 02:06:47;;;;;;;73.33;11.25;;;;;;;16.77;69.38;98191.22;2208961;79;20933;-79
2022/06/20 02:09:47;;;;;;;9.23;5.58;;;;;;;16.69;69.56;98195.34;2209567;79;20949;-79
2022/06/20 02:12:47;;;;;;;52.48;9.55;;;;;;;16.66;69.96;98198.50;2209441;79;21336;-79
2022/06/20 02:15:48;;;;;;;8.25;5.53;;;;;;;16.56;70.12;98185.50;2209642;79;20959;-81
2022/06/20 02:18:48;;;;;;;8.63;5.20;;;;;;;17.10;74.46;98175.91;2209692;79;20968;-82
2022/06/20 02:21:49;;;;;;;8.65;5.75;;;;;;;18.32;73.43;98173.96;2209641;79;21011;-81
2022/06/20 02:24:49;;;;;;;7.72;5.03;;;;;;;19.31;71.14;98180.11;2209407;79;20905;-82
2022/06/20 02:27:49;;;;;;;6.62;5.30;;;;;;;20.03;68.96;98178.97;2209601;79;21379;-81
2022/06/20 02:30:50;;;;;;;10.00;5.10;;;;;;;20.57;66.85;98189.30;2210899;81;20962;-80
2022/06/20 02:33:50;;;;;;;9.40;5.37;;;;;;;20.93;65.23;98189.67;2214325;79;20948;-81
2022/06/20 02:36:51;;;;;;;6.85;5.40;;;;;;;21.16;63.97;98188.73;2237390;79;20963;-81
2022/06/20 02:39:52;;;;;;;10.03;5.03;;;;;;;21.30;62.96;98188.20;2237418;79;20931;-80
2022/06/20 02:42:51;;;;;;;8.65;5.62;;;;;;;21.48;62.33;98182.11;2236791;79;20912;-81
2022/06/20 02:45:52;;;;;;;47.78;9.38;;;;;;;21.62;61.47;98189.48;2237630;79;21319;-83
2022/06/20 02:48:52;;;;;;;8.60;4.83;;;;;;;21.69;60.19;98190.12;2236908;79;20924;-82
2022/06/20 02:51:53;;;;;;;24.02;6.40;;;;;;;21.73;59.89;98197.03;2237370;79;20931;-82
2022/06/20 02:54:53;;;;;;;12.45;5.53;;;;;;;21.81;58.82;98202.41;2237106;79;20888;-79
2022/06/20 02:57:53;;;;;;;18.95;7.25;;;;;;;21.75;57.85;98196.50;2236407;79;21026;-80
2022/06/20 03:00:54;;;;;;;8.88;4.85;;;;;;;21.73;58.05;98197.03;2236725;79;21299;-81
2022/06/20 03:03:54;;;;;;;39.75;6.42;;;;;;;21.82;58.02;98188.66;2236630;79;20916;-80
2022/06/20 03:06:55;;;;;;;16.07;5.80;;;;;;;21.91;57.50;98198.41;2236455;79;20964;-81
2022/06/20 03:09:55;;;;;;;7.00;4.92;;;;;;;22.01;57.55;98208.64;2236840;79;20928;-81
2022/06/20 03:12:55;;;;;;;10.48;4.87;;;;;;;22.09;57.48;98204.73;2236720;79;20959;-81
2022/06/20 03:15:56;;;;;;;6.30;4.70;;;;;;;22.20;57.13;98194.48;2236698;79;20987;-81
2022/06/20 03:18:56;;;;;;;7.30;4.62;;;;;;;22.23;56.85;98198.34;2236748;80;20954;-81
2022/06/20 03:21:57;;;;;;;5.92;4.78;;;;;;;22.28;56.95;98199.45;2236239;79;20959;-80
2022/06/20 03:24:57;;;;;;;6.17;4.58;;;;;;;22.37;56.96;98199.03;2235811;79;20951;-81
2022/06/20 03:27:57;;;;;;;7.62;5.03;;;;;;;22.47;56.76;98208.31;2235224;79;21019;-82
2022/06/20 03:30:58;;;;;;;5.05;4.55;;;;;;;22.54;56.36;98214.22;2234921;79;21002;-79
2022/06/20 03:33:58;;;;;;;6.47;4.25;;;;;;;22.48;55.26;98216.69;2232224;79;20943;-79
2022/06/20 03:37:02;;;;;;;8.90;5.15;;;;;;;21.60;55.40;98228.53;2207743;79;20929;-81
2022/06/20 03:39:59;;;;;;;8.30;4.83;;;;;;;21.07;58.57;98225.40;2209301;79;21384;-83
2022/06/20 03:43:00;;;;;;;37.03;5.90;;;;;;;21.52;59.02;98218.23;2208054;79;20944;-82
2022/06/20 03:46:00;;;;;;;6.90;4.67;;;;;;;21.86;58.33;98226.12;2209068;79;20924;-81
2022/06/20 03:49:01;;;;;;;11.73;5.55;;;;;;;22.02;58.03;98223.19;2210271;79;20964;-81
2022/06/20 03:52:01;;;;;;;13.58;5.47;;;;;;;22.23;57.92;98226.72;2208710;79;20944;-80
2022/06/20 03:55:02;;;;;;;22.80;6.50;;;;;;;22.42;57.63;98230.73;2207514;79;21316;-80
2022/06/20 03:58:02;;;;;;;26.62;6.40;;;;;;;22.54;57.63;98231.06;2207719;79;21007;-82
2022/06/20 04:01:03;;;;;;;9.15;5.30;;;;;;;22.73;56.96;98229.74;2208329;79;20944;-82
2022/06/20 04:04:03;;;;;;;9.75;5.95;;;;;;;23.02;56.39;98240.37;2208822;79;21915;-82
2022/06/20 04:07:03;;;;;;;7.97;6.35;;;;;;;23.17;56.03;98241.43;2208481;79;20956;-81
2022/06/20 04:13:22;;;;;;;38.58;8.68;;;;;;;23.54;55.42;98239.18;2210146;81;20972;-80
2022/06/20 04:16:23;;;;;;;16.45;6.42;;;;;;;23.82;55.26;98245.34;2208726;79;21022;-82
2022/06/20 04:19:23;;;;;;;11.95;6.00;;;;;;;24.05;55.03;98250.34;2207521;79;20944;-82
2022/06/20 04:22:27;;;;;;;12.35;6.45;;;;;;;24.33;54.45;98242.30;2208343;81;20975;-82
2022/06/20 04:25:26;;;;;;;88.33;13.88;;;;;;;24.57;54.17;98247.64;2206779;79;21051;-82
2022/06/20 04:28:26;;;;;;;9.13;5.50;;;;;;;24.75;53.61;98250.64;2163707;82;21007;-81
2022/06/20 04:31:27;;;;;;;9.13;5.95;;;;;;;24.95;53.33;98254.02;2156672;82;20965;-81
2022/06/20 04:34:27;;;;;;;13.68;6.58;;;;;;;25.03;52.91;98253.16;2127478;83;21030;-81
2022/06/20 04:37:27;;;;;;;7.92;6.28;;;;;;;24.99;53.07;98248.93;2126513;83;20994;-81
2022/06/20 04:40:28;;;;;;;5.67;5.17;;;;;;;24.98;53.30;98248.55;2126928;83;20979;-81
2022/06/20 04:43:28;;;;;;;9.65;5.40;;;;;;;25.03;53.58;98247.81;2127129;83;21172;-82
2022/06/20 04:46:29;;;;;;;11.03;4.53;;;;;;;25.00;53.41;98250.66;2127922;83;21034;-81
2022/06/20 04:49:29;;;;;;;11.43;4.40;;;;;;;24.99;51.53;98252.46;2127528;83;21414;-82
2022/06/20 04:52:30;;;;;;;6.42;5.12;;;;;;;25.13;52.26;98248.16;2127780;83;20971;-81
2022/06/20 04:55:30;;;;;;;6.20;4.33;;;;;;;25.30;52.99;98243.61;2128135;82;20995;-80
2022/06/20 04:58:31;;;;;;;8.38;3.75;;;;;;;25.38;51.32;98254.72;2127384;83;20986;-82
2022/06/20 05:01:31;;;;;;;6.62;3.70;;;;;;;25.41;50.52;98253.68;2127062;83;20979;-79
2022/06/20 05:04:33;;;;;;;6.87;3.47;;;;;;;25.32;50.12;98259.55;2105335;84;20991;-80
2022/06/20 05:07:34;;;;;;;11.57;4.10;;;;;;;25.53;50.41;98258.31;2128661;83;20998;-81
2022/06/20 05:10:34;;;;;;;8.83;4.03;;;;;;;25.62;49.14;98258.25;2127210;83;21010;-80
2022/06/20 05:13:34;;;;;;;4.72;3.47;;;;;;;25.56;48.38;98260.81;2127734;83;21445;-81
2022/06/20 05:16:35;;;;;;;9.10;4.12;;;;;;;25.47;47.70;98271.16;2127432;83;21026;-78
2022/06/20 05:19:36;;;;;;;15.83;5.33;;;;;;;25.36;47.67;98263.77;2126534;83;20964;-81
2022/06/20 05:22:35;;;;;;;12.93;4.42;;;;;;;25.33;47.51;98264.80;2126875;83;20947;-81
2022/06/20 05:25:36;;;;;;;6.97;3.83;;;;;;;25.43;46.25;98278.50;2125647;83;21025;-78
2022/06/20 05:28:36;;;;;;;8.70;3.87;;;;;;;25.34;46.65;98282.55;2127180;83;20987;-81
2022/06/20 05:31:37;;;;;;;9.33;4.05;;;;;;;25.34;47.27;98282.55;2127667;84;20959;-80
2022/06/20 05:34:37;;;;;;;14.93;4.10;;;;;;;25.34;46.99;98278.55;2128069;83;21026;-79
2022/06/20 05:37:37;;;;;;;6.95;3.83;;;;;;;25.35;46.17;98290.95;2126333;83;20954;-80
2022/06/20 05:40:38;;;;;;;12.00;4.85;;;;;;;25.34;47.75;98298.58;2127909;84;20955;-81
2022/06/20 05:43:38;;;;;;;10.93;4.78;;;;;;;25.26;47.21;98291.48;2128566;83;20991;-82
2022/06/20 05:46:39;;;;;;;6.75;4.40;;;;;;;25.15;48.07;98279.67;2128492;83;20975;-80
2022/06/20 05:49:39;;;;;;;7.95;5.28;;;;;;;25.27;48.12;98278.51;2128101;83;21501;-81
2022/06/20 05:52:40;;;;;;;8.55;4.87;;;;;;;25.42;47.58;98290.13;2128708;83;20963;-81
2022/06/20 05:55:41;;;;;;;7.47;4.90;;;;;;;25.58;47.36;98282.09;2128493;84;21378;-82
2022/06/20 05:58:41;;;;;;;9.03;5.03;;;;;;;25.68;46.86;98280.65;2128348;82;21030;-81
2022/06/20 06:01:41;;;;;;;15.60;4.92;;;;;;;25.96;46.96;98271.39;2129035;83;20990;-80
2022/06/20 06:04:41;;;;;;;9.10;4.72;;;;;;;26.12;45.34;98266.02;2128598;83;20998;-81
2022/06/20 06:07:42;;;;;;;104.27;15.68;;;;;;;26.16;45.55;98266.69;2129627;83;21105;-80
2022/06/20 06:10:42;;;;;;;9.30;5.50;;;;;;;26.00;46.11;98245.32;2161246;82;20909;-80
2022/06/20 06:13:44;;;;;;;11.83;5.15;;;;;;;26.45;45.78;98255.58;2129110;83;20963;-81
2022/06/20 06:16:49;;;;;;;8.23;5.45;;;;;;;26.76;45.47;98250.50;2129308;84;20992;-81
2022/06/20 06:19:49;;;;;;;11.93;5.12;;;;;;;26.84;44.44;98256.23;2129404;83;20928;-81
2022/06/20 06:22:50;;;;;;;8.28;5.40;;;;;;;26.57;45.10;98245.45;2129502;84;20947;-80
2022/06/20 06:25:50;;;;;;;6.58;4.60;;;;;;;26.82;44.77;98244.77;2129774;83;21422;-81
2022/06/20 06:28:51;;;;;;;8.33;4.70;;;;;;;27.15;44.15;98244.00;2129369;82;20987;-80
2022/06/20 06:31:54;;;;;;;9.20;4.92;;;;;;;27.43;43.26;98237.69;2128857;83;20935;-80
2022/06/20 06:34:54;;;;;;;;;;;;;;;27.48;44.09;98242.75;2131166;83;20983;-81
2022/06/20 06:37:55;;;;;;;8.40;5.28;;;;;;;27.25;43.97;98240.24;2161468;82;20451;-79
2022/06/20 06:40:56;;;;;;;8.80;5.28;;;;;;;26.78;44.08;98237.88;2128622;83;20959;-81
2022/06/20 06:43:55;;;;;;;7.05;4.47;;;;;;;26.62;44.50;98237.51;2128161;83;21008;-80
2022/06/20 06:46:56;;;;;;;29.72;7.03;;;;;;;26.20;45.56;98234.79;2128409;83;21367;-79
2022/06/20 06:49:56;;;;;;;12.33;5.37;;;;;;;26.17;46.17;98239.84;2128014;83;20998;-80
2022/06/20 06:52:58;;;;;;;16.62;5.72;;;;;;;26.65;45.59;98237.80;2129076;83;20996;-81
2022/06/20 06:55:57;;;;;;;8.30;5.67;;;;;;;26.86;45.04;98232.42;2129164;83;21018;-81
2022/06/20 06:58:58;;;;;;;12.93;6.37;;;;;;;27.01;44.15;98237.81;2129451;82;20995;-81
2022/06/20 07:01:58;;;;;;;15.60;5.42;;;;;;;27.34;44.17;98234.76;2128877;83;20952;-80
2022/06/20 07:04:58;;;;;;;8.38;5.42;;;;;;;27.70;42.73;98232.34;2129084;83;20991;-80
2022/06/20 07:07:59;;;;;;;10.25;5.17;;;;;;;28.15;42.95;98222.14;2129325;83;21030;-80
2022/06/20 07:10:59;;;;;;;5.40;4.70;;;;;;;28.39;42.59;98227.66;2128308;83;21013;-81
2022/06/20 07:14:00;;;;;;;8.20;5.95;;;;;;;28.06;42.02;98237.05;2127962;83;20995;-80
2022/06/20 07:17:00;;;;;;;8.98;5.85;;;;;;;27.51;42.56;98239.86;2128068;83;20959;-79
2022/06/20 07:20:00;;;;;;;6.08;4.85;;;;;;;27.21;43.15;98242.27;2128164;83;21014;-80
2022/06/20 07:23:01;;;;;;;8.60;6.17;;;;;;;27.33;43.75;98249.12;2128254;83;21002;-80
2022/06/20 07:26:01;;;;;;;9.53;5.58;;;;;;;27.55;43.48;98242.72;2128824;83;21081;-80
2022/06/20 07:29:02;;;;;;;6.80;5.70;;;;;;;27.54;43.40;98245.88;2129246;83;21046;-81
2022/06/20 07:32:02;;;;;;;11.83;5.80;;;;;;;27.54;43.00;98236.98;2129122;83;20986;-81
2022/06/20 07:35:03;;;;;;;43.95;8.25;;;;;;;27.47;43.52;98242.37;2128922;83;21038;-80
2022/06/20 07:38:03;;;;;;;959.92;106.75;;;;;;;27.45;43.61;98237.59;2129708;83;21321;-81
2022/06/20 07:41:03;;;;;;;17.10;6.03;;;;;;;27.56;43.45;98227.88;2162131;82;20965;-80
2022/06/20 07:44:04;;;;;;;146.80;17.45;;;;;;;27.80;43.35;98225.91;2129172;83;20939;-80
2022/06/20 07:47:04;;;;;;;31.95;7.67;;;;;;;27.99;43.04;98213.44;2162543;82;21014;-81
2022/06/20 07:50:05;;;;;;;19.37;6.87;;;;;;;28.36;42.69;98213.97;2129306;83;21482;-81
2022/06/20 07:53:05;;;;;;;13.25;5.90;;;;;;;28.72;41.93;98219.92;2129110;83;20947;-80
2022/06/20 07:56:05;;;;;;;17.55;6.50;;;;;;;28.96;41.17;98211.95;2128592;83;20979;-82
2022/06/20 07:59:06;;;;;;;9.10;5.40;;;;;;;29.00;41.08;98220.64;2126874;82;21771;-80
2022/06/20 08:02:06;;;;;;;15.20;5.08;;;;;;;29.17;41.21;98217.58;2129032;83;20994;-80
2022/06/20 08:05:07;;;;;;;7.42;5.22;;;;;;;29.11;40.94;98217.54;2129027;83;20998;-81
2022/06/20 08:08:07;;;;;;;9.63;6.00;;;;;;;29.20;41.65;98207.09;2128674;83;21050;-82
2022/06/20 08:11:08;;;;;;;12.25;5.75;;;;;;;29.46;41.37;98198.83;2127669;83;21001;-81
2022/06/20 08:14:08;;;;;;;12.40;5.70;;;;;;;29.63;40.79;98190.86;2127990;83;20975;-80
2022/06/20 08:17:08;;;;;;;7.20;5.67;;;;;;;29.50;40.55;98184.70;2127909;83;20959;-80
2022/06/20 08:20:09;;;;;;;15.15;5.42;;;;;;;29.57;40.37;98172.50;2128676;83;20973;-80
2022/06/20 08:23:09;;;;;;;9.38;4.92;;;;;;;29.79;40.56;98160.47;2128425;84;21020;-81
2022/06/20 08:26:09;;;;;;;12.35;6.00;;;;;;;29.89;40.19;98155.72;2129095;83;20959;-81
2022/06/20 08:29:10;;;;;;;6.72;4.97;;;;;;;30.03;40.18;98142.08;2127481;82;21621;-81
2022/06/20 08:32:10;;;;;;;15.90;5.55;;;;;;;30.00;39.53;98132.38;2128131;83;20991;-80
2022/06/20 08:35:11;;;;;;;13.08;5.28;;;;;;;30.17;40.05;98132.92;2128186;83;20967;-81
2022/06/20 08:38:11;;;;;;;19.07;12.10;;;;;;;30.30;39.64;98123.74;2128227;83;20963;-81
2022/06/20 08:41:11;;;;;;;16.42;8.35;;;;;;;30.26;39.29;98118.73;2160794;82;20995;-81
2022/06/20 08:44:12;;;;;;;17.20;9.35;;;;;;;30.46;39.28;98116.67;2127604;83;21323;-81
2022/06/20 08:47:13;;;;;;;15.80;7.80;;;;;;;30.70;38.79;98111.16;2127849;84;21023;-80
2022/06/20 08:50:14;;;;;;;13.10;7.25;;;;;;;30.86;38.64;98104.02;2128333;84;21215;-81
2022/06/20 08:53:14;;;;;;;10.48;6.30;;;;;;;30.58;38.38;98100.01;2128292;83;20997;-81
2022/06/20 08:56:14;;;;;;;15.00;6.28;;;;;;;30.45;39.37;98091.22;2128492;83;21006;-80
2022/06/20 08:59:15;;;;;;;16.82;5.83;;;;;;;30.45;39.37;98091.22;2128387;82;21387;-81
2022/06/20 09:02:15;;;;;;;10.95;5.92;;;;;;;30.43;39.29;98080.56;2127967;83;20992;-78
2022/06/20 09:05:16;;;;;;;13.45;6.08;;;;;;;30.51;38.39;98070.03;2127984;83;20912;-80
2022/06/20 09:08:16;;;;;;;9.48;5.72;;;;;;;30.49;38.87;98071.99;2128686;83;21066;-80
2022/06/20 09:11:16;;;;;;;10.08;6.22;;;;;;;30.69;38.72;98074.43;2128382;83;20983;-80
2022/06/20 09:14:17;;;;;;;17.57;6.67;;;;;;;31.00;38.30;98072.25;2129043;83;20959;-81
2022/06/20 09:17:17;;;;;;;18.20;7.65;;;;;;;31.30;37.67;98074.77;2129507;83;20979;-81
2022/06/20 09:20:18;;;;;;;20.30;6.03;;;;;;;31.43;37.23;98069.17;2129847;83;21022;-81
2022/06/20 09:23:18;;;;;;;14.85;6.67;;;;;;;31.47;37.91;98066.09;2129942;83;20967;-82
2022/06/20 09:26:18;;;;;;;18.90;11.40;;;;;;;31.70;37.08;98053.84;2129676;83;21010;-83
2022/06/20 09:29:19;;;;;;;25.32;8.80;;;;;;;31.65;36.67;98048.31;2160847;82;21012;-78
2022/06/20 09:32:19;;;;;;;18.85;6.03;;;;;;;31.90;35.84;98053.81;2125580;83;21422;-78
2022/06/20 09:35:20;;;;;;;16.10;6.00;;;;;;;32.01;35.00;98048.81;2126892;83;21053;-78
2022/06/20 09:38:20;;;;;;;6.70;5.10;;;;;;;31.85;35.83;98048.45;2209416;80;21024;-78
2022/06/20 09:41:21;;;;;;;10.53;7.05;;;;;;;31.86;36.21;98050.16;2211847;80;20976;-81
2022/06/20 09:44:25;;;;;;;12.40;6.72;;;;;;;31.86;35.99;98050.16;2211988;80;21028;-79
2022/06/20 09:47:26;;;;;;;288.40;26.02;;;;;;;31.99;35.19;98057.05;2210983;81;21239;-78
2022/06/20 09:50:26;;;;;;;58.17;10.10;;;;;;;32.20;35.77;98052.98;2209624;80;20981;-81
2022/06/20 09:53:26;;;;;;;12.05;5.10;;;;;;;32.26;35.92;98040.31;2211227;80;20987;-80
2022/06/20 09:56:27;;;;;;;12.10;4.55;;;;;;;32.42;35.72;98026.78;2211280;80;20948;-80
2022/06/20 09:59:30;;;;;;;9.05;4.78;;;;;;;32.34;36.14;98029.31;2210731;81;20981;-81
2022/06/20 10:02:30;;;;;;;13.15;5.40;;;;;;;32.33;36.05;98020.36;2211404;80;20975;-79
2022/06/20 10:05:31;;;;;;;14.93;6.70;;;;;;;32.25;36.63;98012.95;2211137;80;21022;-82
2022/06/20 10:08:31;;;;;;;15.30;5.10;;;;;;;32.25;36.85;98007.55;2212307;80;21048;-81
2022/06/20 10:11:32;;;;;;;12.78;5.50;;;;;;;32.56;36.60;97992.62;2211726;80;20921;-80
2022/06/20 10:14:33;;;;;;;7.33;4.35;;;;;;;32.73;35.68;97981.11;2210218;80;21698;-80
2022/06/20 10:17:32;;;;;;;6.83;3.65;;;;;;;32.77;34.91;97983.92;2210296;80;20964;-79
2022/06/20 10:20:33;;;;;;;9.40;3.80;;;;;;;32.76;34.82;97976.78;2208670;80;20952;-78
2022/06/20 10:23:35;;;;;;;9.28;4.25;;;;;;;32.76;34.80;97970.52;2210428;80;20971;-79
2022/06/20 10:26:36;;;;;;;6.25;3.40;;;;;;;32.85;34.56;97972.40;2199341;81;21030;-81
2022/06/20 10:29:36;;;;;;;95.30;12.55;;;;;;;32.98;32.70;97961.33;2207854;80;21401;-82
2022/06/20 10:32:36;;;;;;;8.70;3.50;;;;;;;32.99;32.75;97963.89;2210857;80;20940;-80
2022/06/20 10:35:40;;;;;;;33.75;6.65;;;;;;;33.02;32.78;97956.84;2209249;80;20976;-80
2022/06/20 10:38:40;;;;;;;14.47;3.95;;;;;;;33.14;32.02;97938.11;2211846;79;21029;-80
2022/06/20 10:41:40;;;;;;;14.15;4.50;;;;;;;33.20;31.40;97924.52;2214083;80;21379;-80
2022/06/20 10:44:41;;;;;;;28.70;4.60;;;;;;;33.34;31.21;97914.61;2211821;79;21273;-81
2022/06/20 10:47:41;;;;;;;11.70;3.65;;;;;;;33.56;31.34;97916.09;2212979;80;21027;-80
2022/06/20 10:50:42;;;;;;;11.50;4.62;;;;;;;33.82;31.26;97919.04;2211929;79;21957;-81
2022/06/20 10:53:42;;;;;;;13.40;4.12;;;;;;;33.82;30.99;97928.02;2213718;79;20937;-80
2022/06/20 10:56:42;;;;;;;5.65;3.10;;;;;;;33.84;30.89;97939.54;2214525;79;20928;-80
2022/06/20 10:59:43;;;;;;;6.17;2.87;;;;;;;33.90;31.12;97942.15;2214333;79;21049;-80
2022/06/20 11:02:43;;;;;;;6.97;3.72;;;;;;;34.01;31.27;97939.74;2214748;80;20929;-79
2022/06/20 11:05:45;;;;;;;8.25;3.58;;;;;;;34.11;31.48;97935.13;2215910;79;20936;-80
2022/06/20 11:08:44;;;;;;;10.45;3.35;;;;;;;34.21;30.76;97941.33;2214511;79;21024;-80
2022/06/20 11:11:44;;;;;;;11.95;3.85;;;;;;;34.33;31.22;97939.30;2213387;79;21084;-80
2022/06/20 11:14:45;;;;;;;17.27;3.98;;;;;;;34.39;30.63;97947.66;2214796;79;20972;-81
2022/06/20 11:17:45;;;;;;;7.33;3.80;;;;;;;34.35;30.98;97935.42;2215366;80;20959;-81
2022/06/20 11:20:46;;;;;;;15.35;4.03;;;;;;;34.64;29.85;97948.76;2214311;80;21645;-81
2022/06/20 11:23:46;;;;;;;14.00;4.78;;;;;;;34.83;29.72;97948.31;2214181;79;20951;-81
2022/06/20 11:26:46;;;;;;;13.90;3.65;;;;;;;34.90;29.48;97952.11;2215276;79;20917;-80
2022/06/20 11:29:47;;;;;;;8.88;3.08;;;;;;;35.18;29.44;97966.40;2214534;79;21613;-79
2022/06/20 11:32:47;;;;;;;11.38;3.17;;;;;;;35.40;29.62;97964.56;2213467;79;20952;-80
2022/06/20 11:35:48;;;;;;;6.85;3.90;;;;;;;35.17;29.20;97961.48;2214615;79;20956;-81
2022/06/20 11:38:48;;;;;;;7.40;3.25;;;;;;;34.93;29.40;97963.99;2220834;80;20999;-80
2022/06/20 11:41:50;;;;;;;6.30;3.80;;;;;;;34.83;29.27;97975.42;2220526;80;20948;-79
2022/06/20 11:44:49;;;;;;;8.88;3.83;;;;;;;34.47;29.42;97975.34;2220983;80;20959;-80
2022/06/20 11:47:49;;;;;;;7.25;3.60;;;;;;;34.14;30.37;97990.34;2222202;80;20995;-79
2022/06/20 11:50:50;;;;;;;10.98;4.28;;;;;;;33.86;30.54;97996.23;2219129;79;21045;-80
2022/06/20 11:53:50;;;;;;;13.43;3.98;;;;;;;33.80;31.54;97996.77;2221297;79;21353;-82
2022/06/20 11:56:51;;;;;;;8.68;3.62;;;;;;;33.76;31.79;98000.77;2220598;80;20990;-82
2022/06/20 11:59:52;;;;;;;7.87;3.75;;;;;;;33.65;31.98;98010.42;2220760;79;21077;-82
2022/06/20 12:02:51;;;;;;;174.90;16.57;;;;;;;33.55;32.25;98018.06;2220480;80;20956;-79
2022/06/20 12:05:52;;;;;;;13.45;4.37;;;;;;;33.44;32.78;98031.75;2190495;81;20923;-81
2022/06/20 12:08:52;;;;;;;14.50;4.65;;;;;;;33.23;33.36;98040.50;2235117;78;20990;-82
2022/06/20 12:11:53;;;;;;;9.48;3.83;;;;;;;32.92;33.99;98067.64;2234602;79;20955;-81
2022/06/20 12:14:53;;;;;;;12.73;4.60;;;;;;;32.62;35.39;98087.97;2234974;79;21474;-80
2022/06/20 12:17:54;;;;;;;19.05;5.87;;;;;;;32.14;35.23;98101.27;2234816;79;20992;-81
2022/06/20 12:24:13;;;;;;;15.32;5.90;;;;;;;30.97;36.09;98103.98;2234573;80;20962;-81
2022/06/20 12:27:13;;;;;;;14.78;5.00;;;;;;;30.41;36.63;98103.58;2234376;79;21005;-82
2022/06/20 12:30:14;;;;;;;13.83;5.08;;;;;;;30.03;36.69;98107.09;2234546;80;21446;-80
2022/06/20 12:33:14;;;;;;;23.35;5.47;;;;;;;29.62;36.43;98108.47;2234820;79;20962;-81
2022/06/20 12:36:14;;;;;;;17.48;4.65;;;;;;;29.36;38.30;98135.08;2235191;79;21116;-81
2022/06/20 12:39:15;;;;;;;44.50;5.83;;;;;;;29.05;39.83;98164.25;2235961;79;20916;-80
2022/06/20 12:42:15;;;;;;;27.95;5.17;;;;;;;28.40;44.18;98186.43;2236165;80;21544;-79
2022/06/20 12:45:16;;;;;;;14.45;4.60;;;;;;;27.74;46.68;98172.66;2235586;79;21532;-79
2022/06/20 12:48:16;;;;;;;19.62;4.60;;;;;;;27.10;49.10;98203.26;2233176;79;21010;-79
2022/06/20 12:51:16;;;;;;;20.68;4.42;;;;;;;26.37;50.25;98207.88;2230967;80;20959;-79
2022/06/20 12:54:17;;;;;;;15.18;5.03;;;;;;;25.78;52.27;98211.47;2231346;79;20982;-79
2022/06/20 12:57:17;;;;;;;11.33;4.20;;;;;;;25.34;55.39;98205.08;2231722;79;21315;-78
2022/06/20 13:00:18;;;;;;;9.60;4.60;;;;;;;24.85;57.98;98189.61;2231562;79;21022;-79
2022/06/20 13:03:18;;;;;;;11.57;4.67;;;;;;;24.47;57.96;98181.06;2232053;79;21069;-79
2022/06/20 13:06:19;;;;;;;9.78;4.25;;;;;;;24.41;57.54;98190.73;2231717;80;21446;-78
2022/06/20 13:09:19;;;;;;;8.33;4.33;;;;;;;24.71;56.47;98176.17;2231988;79;20975;-79
2022/06/20 13:12:19;;;;;;;8.53;4.10;;;;;;;25.11;55.38;98160.12;2230641;79;21339;-79
2022/06/20 13:15:20;;;;;;;5.78;3.52;;;;;;;25.10;56.06;98162.41;2232458;79;21273;-79
2022/06/20 13:18:22;;;;;;;9.65;4.00;;;;;;;24.89;56.49;98163.13;2209377;80;21023;-79
2022/06/20 13:21:22;;;;;;;6.12;4.20;;;;;;;24.75;57.27;98142.55;2231927;79;21014;-79
2022/06/20 13:24:23;;;;;;;6.10;3.60;;;;;;;24.66;57.46;98133.73;2232122;79;21272;-79
2022/06/20 13:27:24;;;;;;;6.40;3.65;;;;;;;24.70;57.57;98110.41;2231346;80;21026;-78
2022/06/20 13:30:24;;;;;;;7.55;3.70;;;;;;;24.82;57.35;98102.17;2229744;79;21034;-79
2022/06/20 13:33:24;;;;;;;6.70;4.80;;;;;;;24.69;57.79;98098.01;2232533;79;21014;-78
2022/06/20 13:36:24;;;;;;;10.63;4.42;;;;;;;24.60;58.02;98090.05;2232982;79;21271;-78
2022/06/20 13:39:25;;;;;;;17.70;6.78;;;;;;;24.65;57.95;98079.98;2232858;79;20975;-79
2022/06/20 13:42:25;;;;;;;8.25;3.08;;;;;;;25.04;58.11;98058.63;2234036;79;20967;-78
2022/06/20 13:45:26;;;;;;;36.45;5.92;;;;;;;25.18;57.45;98055.17;2235739;79;21022;-79
2022/06/20 13:48:26;;;;;;;6.92;2.75;;;;;;;25.41;57.79;98049.30;2235051;79;21112;-79
2022/06/20 13:51:26;;;;;;;6.47;2.85;;;;;;;25.26;57.19;98056.43;2236547;79;20947;-79
2022/06/20 13:54:27;;;;;;;16.60;3.42;;;;;;;25.49;57.50;98054.18;2236133;79;21009;-80
2022/06/20 13:57:27;;;;;;;5.03;2.58;;;;;;;25.58;57.23;98050.94;2234772;79;20983;-80
2022/06/20 14:00:28;;;;;;;3.40;2.27;;;;;;;25.48;57.00;98039.10;2235082;79;21034;-79
2022/06/20 14:03:28;;;;;;;2.98;2.35;;;;;;;25.66;56.87;98052.22;2234706;79;21371;-79
2022/06/20 14:06:29;;;;;;;3.95;2.12;;;;;;;25.98;56.14;98062.25;2236994;79;21023;-80
2022/06/20 14:09:29;;;;;;;6.58;3.25;;;;;;;26.26;55.56;98061.38;2238044;79;21006;-79
2022/06/20 14:12:29;;;;;;;10.72;3.30;;;;;;;26.50;55.23;98056.30;2237243;79;20991;-79
2022/06/20 14:15:30;;;;;;;11.22;2.77;;;;;;;26.70;54.94;98058.15;2237065;79;20947;-82
2022/06/20 14:18:30;;;;;;;7.28;3.30;;;;;;;26.81;54.70;98052.46;2235830;79;20970;-80